Time;durP1;ratioP1;P1;durP2;ratioP2;P2;SDS_P1;SDS_P2;PMS_P1;PMS_P2;Temp;Humidity;BMP_temperature;BMP_pressure;BME280_temperature;BME280_humidity;BME280_pressure;Samples;Min_cycle;Max_cycle;Signal;HPM_P1;HPM_P2
2021/12/12 00:00:29;;;;;;;1.95;1.35;;;0.20;1.40;;;0.99;100.00;96054.92;646517;216;31547;-75
2021/12/12 00:03:14;;;;;;;3.08;2.78;;;0.20;1.40;;;1.07;100.00;96051.48;646939;216;42833;-75
2021/12/12 00:05:50;;;;;;;1.40;1.30;;;0.20;1.40;;;1.13;100.00;96055.80;639335;216;31751;-76
2021/12/12 00:08:48;;;;;;;1.27;1.17;;;0.30;1.40;;;1.12;100.00;96056.64;646075;216;42248;-75
2021/12/12 00:11:30;;;;;;;0.98;0.98;;;0.40;1.40;;;1.10;100.00;96063.34;648024;212;31626;-77
2021/12/12 00:14:12;;;;;;;1.67;1.58;;;0.40;1.40;;;1.08;100.00;96064.20;647988;216;31528;-76
2021/12/12 00:16:54;;;;;;;3.50;1.23;;;0.50;1.40;;;1.14;100.00;96073.36;647660;216;31565;-76
2021/12/12 00:19:36;;;;;;;1.60;1.17;;;0.60;1.40;;;1.25;100.00;96069.88;646003;212;31584;-76
2021/12/12 00:22:26;;;;;;;1.10;1.10;;;0.60;1.40;;;1.29;100.00;96074.03;646153;212;31736;-75
2021/12/12 00:25:14;;;;;;;1.50;1.40;;;0.60;1.40;;;1.29;100.00;96080.23;647263;212;31604;-76
2021/12/12 00:27:56;;;;;;;1.92;1.83;;;0.70;1.40;;;1.35;100.00;96080.41;647929;212;31547;-75
2021/12/12 00:30:37;;;;;;;1.95;1.75;;;0.70;1.40;;;1.43;100.00;96082.20;646002;216;32136;-76
2021/12/12 00:35:51;;;;;;;2.15;1.98;;;0.70;1.40;;;1.35;100.00;96094.30;647092;212;42523;-76
2021/12/12 00:38:33;;;;;;;2.60;0.98;;;0.70;1.40;;;1.32;100.00;96089.52;620142;226;32131;-76
2021/12/12 00:41:21;;;;;;;1.60;1.20;;;0.70;1.40;;;1.43;100.00;96088.65;648420;216;31513;-76
2021/12/12 00:44:03;;;;;;;3.12;2.10;;;0.70;1.40;;;1.46;100.00;96089.48;647894;212;31473;-76
2021/12/12 00:46:45;;;;;;;0.50;0.40;;;0.70;1.40;;;1.48;100.00;96095.83;646418;212;31521;-77
2021/12/12 00:49:26;;;;;;;1.37;1.27;;;0.70;1.40;;;1.47;100.00;96091.69;619199;222;31886;-75
2021/12/12 00:52:08;;;;;;;2.58;2.05;;;0.70;1.40;;;1.47;100.00;96094.47;647231;212;31570;-76
2021/12/12 00:54:52;;;;;;;2.10;1.77;;;0.80;1.40;;;1.42;100.00;96095.52;648522;212;31547;-77
2021/12/12 00:57:34;;;;;;;1.62;1.52;;;0.80;1.40;;;1.40;100.00;96100.34;647501;216;31620;-76
2021/12/12 01:00:16;;;;;;;3.22;1.33;;;0.80;1.40;;;1.47;100.00;96104.66;647796;216;32014;-76
2021/12/12 01:02:58;;;;;;;2.47;1.63;;;0.80;1.40;;;1.45;100.00;96110.62;646595;216;31859;-76
2021/12/12 01:05:39;;;;;;;1.27;1.17;;;0.80;1.40;;;1.39;100.00;96114.68;638010;212;31878;-76
2021/12/12 01:08:21;;;;;;;1.10;1.00;;;0.80;1.40;;;1.46;100.00;96111.16;620299;226;32103;-74
2021/12/12 01:11:08;;;;;;;1.67;1.58;;;0.80;1.40;;;1.41;100.00;96109.70;646832;212;31520;-74
2021/12/12 01:13:56;;;;;;;2.00;1.83;;;0.70;1.40;;;1.41;100.00;96112.66;646421;214;31569;-76
2021/12/12 01:16:39;;;;;;;1.50;0.90;;;0.70;1.40;;;1.32;100.00;96116.86;646954;212;31577;-76
2021/12/12 01:19:23;;;;;;;1.50;1.00;;;0.80;1.40;;;1.39;100.00;96116.72;618435;226;31903;-75
2021/12/12 01:22:07;;;;;;;1.80;1.30;;;0.80;1.40;;;1.40;100.00;96118.06;647771;216;31889;-76
2021/12/12 01:24:50;;;;;;;3.05;1.80;;;0.80;1.40;;;1.44;100.00;96123.63;648044;216;31548;-76
2021/12/12 01:27:30;;;;;;;1.90;1.80;;;0.80;1.40;;;1.43;100.00;96134.98;646305;212;31871;-76
2021/12/12 01:30:12;;;;;;;1.70;1.00;;;0.90;1.40;;;1.48;100.00;96132.69;648284;216;31518;-76
2021/12/12 01:32:54;;;;;;;1.58;1.48;;;0.90;1.40;;;1.48;100.00;96134.25;646141;216;31532;-76
2021/12/12 01:35:51;;;;;;;2.10;1.45;;;0.90;1.40;;;1.50;100.00;96137.69;647368;216;31575;-76
2021/12/12 01:41:27;;;;;;;1.42;1.33;;;0.90;1.40;;;1.48;100.00;96141.83;646498;216;31884;-76
2021/12/12 01:44:11;;;;;;;1.70;1.60;;;0.90;1.40;;;1.59;100.00;96144.68;646598;216;31526;-77
2021/12/12 01:47:00;;;;;;;2.50;2.22;;;0.90;1.40;;;1.59;100.00;96147.10;620025;226;32110;-75
2021/12/12 01:49:42;;;;;;;1.87;1.77;;;0.90;1.40;;;1.56;100.00;96150.34;619429;226;31944;-76
2021/12/12 01:52:23;;;;;;;1.65;1.55;;;0.90;1.40;;;1.58;100.00;96148.83;648040;216;31544;-76
2021/12/12 01:57:39;;;;;;;1.67;1.58;;;0.90;1.40;;;1.61;100.00;96139.22;646623;212;31534;-77
2021/12/12 02:00:29;;;;;;;1.90;1.80;;;0.90;1.40;;;1.60;100.00;96142.52;620010;226;31985;-76
2021/12/12 02:03:11;;;;;;;1.50;1.40;;;0.90;1.40;;;1.65;100.00;96149.53;646987;216;31790;-76
2021/12/12 02:05:52;;;;;;;2.40;1.90;;;0.90;1.40;;;1.64;100.00;96145.92;612275;222;32083;-76
2021/12/12 02:08:34;;;;;;;1.80;1.58;;;0.90;1.40;;;1.69;100.00;96143.84;647758;216;31691;-76
2021/12/12 02:11:19;;;;;;;2.97;1.00;;;0.90;1.40;;;1.64;100.00;96145.24;648430;216;31585;-76
2021/12/12 02:14:08;;;;;;;2.70;1.98;;;0.90;1.40;;;1.63;100.00;96151.52;645726;216;31570;-76
2021/12/12 02:16:43;;;;;;;2.10;1.90;;;0.90;1.40;;;1.63;100.00;96151.52;648134;216;31571;-76
2021/12/12 02:19:33;;;;;;;1.27;1.08;;;0.90;1.40;;;1.63;100.00;96151.08;647846;216;31539;-77
2021/12/12 02:22:35;;;;;;;3.00;1.70;;;0.90;1.40;;;1.65;100.00;96151.31;619151;226;31890;-76
2021/12/12 02:35:53;;;;;;;2.37;2.00;;;0.90;1.40;;;1.72;100.00;96152.19;648076;216;31554;-76
2021/12/12 02:38:39;;;;;;;1.90;1.40;;;0.90;1.40;;;1.62;100.00;96155.35;648574;216;42224;-75
2021/12/12 02:41:22;;;;;;;1.37;1.10;;;0.90;1.40;;;1.61;100.00;96159.32;647807;216;31582;-77
2021/12/12 02:44:05;;;;;;;3.15;1.20;;;0.90;1.40;;;1.62;100.00;96154.07;620087;222;31869;-76
2021/12/12 02:46:49;;;;;;;1.75;1.62;;;0.90;1.40;;;1.74;100.00;96159.77;646765;216;31527;-76
2021/12/12 02:49:39;;;;;;;2.22;1.90;;;0.90;1.40;;;1.68;100.00;96160.37;620809;226;31920;-76
2021/12/12 02:52:14;;;;;;;1.80;1.70;;;0.90;1.40;;;1.63;100.00;96161.78;619147;222;31904;-76
2021/12/12 02:54:57;;;;;;;1.05;1.05;;;0.80;1.40;;;1.69;100.00;96175.09;646792;216;31619;-75
2021/12/12 02:57:39;;;;;;;1.90;1.75;;;0.90;1.40;;;1.60;100.00;96171.43;647215;212;31541;-76
2021/12/12 03:00:21;;;;;;;1.50;1.40;;;0.90;1.40;;;1.62;100.00;96177.31;646716;216;31835;-76
2021/12/12 03:03:02;;;;;;;3.20;1.40;;;0.80;1.40;;;1.53;100.00;96178.05;646475;216;31964;-76
2021/12/12 03:05:44;;;;;;;3.20;1.70;;;0.80;1.40;;;1.64;100.00;96184.47;627825;214;31929;-76
2021/12/12 03:08:25;;;;;;;3.90;2.35;;;0.80;1.40;;;1.56;100.00;96173.73;646881;212;31571;-76
2021/12/12 03:11:07;;;;;;;2.00;1.80;;;0.80;1.40;;;1.55;100.00;96166.55;647893;212;31536;-76
2021/12/12 03:13:49;;;;;;;1.30;1.10;;;0.80;1.40;;;1.60;100.00;96164.64;647149;212;31694;-76
2021/12/12 03:16:30;;;;;;;1.55;1.45;;;0.70;1.40;;;1.42;100.00;96163.90;648097;212;31970;-76
2021/12/12 03:19:12;;;;;;;2.13;2.00;;;0.70;1.40;;;1.45;100.00;96167.36;646448;212;31981;-77
2021/12/12 03:21:54;;;;;;;2.80;1.75;;;0.60;1.40;;;1.37;100.00;96169.71;646542;216;31699;-76
2021/12/12 03:24:38;;;;;;;1.58;1.45;;;0.60;1.40;;;1.29;100.00;96178.78;646869;212;31526;-76
2021/12/12 03:27:20;;;;;;;1.90;1.58;;;0.50;1.40;;;1.33;100.00;96184.68;647010;216;31613;-76
2021/12/12 03:30:02;;;;;;;1.87;1.65;;;0.60;1.40;;;1.37;100.00;96182.86;647773;216;31654;-76
2021/12/12 03:32:46;;;;;;;1.80;1.55;;;0.60;1.40;;;1.30;100.00;96177.88;646710;216;31558;-76
2021/12/12 03:35:51;;;;;;;1.62;1.52;;;0.60;1.40;;;1.25;100.00;96175.95;647202;216;31577;-76
2021/12/12 03:38:36;;;;;;;1.08;0.85;;;0.70;1.40;;;1.28;100.00;96180.51;648177;216;31550;-76
2021/12/12 03:41:17;;;;;;;0.90;0.82;;;0.70;1.40;;;1.27;100.00;96177.64;647362;212;31568;-75
2021/12/12 03:44:02;;;;;;;1.65;1.55;;;0.70;1.40;;;1.26;100.00;96173.72;646525;212;31700;-76
2021/12/12 03:46:43;;;;;;;0.95;0.90;;;0.70;1.40;;;1.28;100.00;96179.45;647135;212;31522;-76
2021/12/12 03:49:25;;;;;;;0.90;0.90;;;0.70;1.40;;;1.36;100.00;96183.20;618937;226;31871;-76
2021/12/12 03:52:07;;;;;;;2.08;1.15;;;0.90;1.40;;;1.41;100.00;96179.16;646948;216;31602;-76
2021/12/12 03:54:49;;;;;;;2.15;1.90;;;0.90;1.40;;;1.43;100.00;96175.41;647612;216;42157;-76
2021/12/12 03:57:30;;;;;;;1.48;1.37;;;0.90;1.40;;;1.50;100.00;96172.95;621142;222;31900;-74
2021/12/12 04:00:16;;;;;;;1.55;1.45;;;1.00;1.40;;;1.50;100.00;96176.92;632554;218;31877;-76
2021/12/12 04:02:57;;;;;;;2.70;1.15;;;0.90;1.40;;;1.48;100.00;96172.92;646670;216;31842;-76
2021/12/12 04:05:39;;;;;;;0.90;0.90;;;0.90;1.40;;;1.46;100.00;96172.50;640233;216;31819;-76
2021/12/12 04:08:29;;;;;;;3.00;2.70;;;0.90;1.40;;;1.46;100.00;96182.97;647750;212;31575;-76
2021/12/12 04:11:13;;;;;;;1.10;1.00;;;0.90;1.40;;;1.52;100.00;96184.65;646063;213;31617;-76
2021/12/12 04:13:59;;;;;;;1.70;1.00;;;0.90;1.40;;;1.43;100.00;96182.42;646959;216;31979;-77
2021/12/12 04:16:41;;;;;;;0.90;0.70;;;0.90;1.40;;;1.43;100.00;96187.72;647567;212;31563;-76
2021/12/12 04:19:22;;;;;;;1.70;1.33;;;0.90;1.40;;;1.42;100.00;96190.46;647636;212;31616;-76
2021/12/12 04:22:04;;;;;;;1.60;1.30;;;0.90;1.40;;;1.34;100.00;96185.88;647658;216;31525;-76
2021/12/12 04:24:46;;;;;;;3.60;2.20;;;0.80;1.40;;;1.22;100.00;96188.58;642626;216;31470;-76
2021/12/12 04:30:04;;;;;;;2.10;1.70;;;0.60;1.40;;;1.17;100.00;96205.70;647625;216;31691;-77
2021/12/12 04:32:43;;;;;;;2.62;1.30;;;0.60;1.40;;;1.15;100.00;96207.56;647963;212;31742;-76
2021/12/12 04:35:58;;;;;;;1.48;1.05;;;0.70;1.40;;;1.25;100.00;96213.34;647272;216;31586;-76
2021/12/12 04:38:40;;;;;;;2.00;1.60;;;0.80;1.40;;;1.41;100.00;96225.58;647617;212;31517;-75
2021/12/12 04:41:22;;;;;;;1.50;1.40;;;0.90;1.40;;;1.46;100.00;96228.92;647447;212;31649;-76
2021/12/12 04:44:08;;;;;;;1.10;0.90;;;0.90;1.40;;;1.50;100.00;96232.22;646259;213;31741;-75
2021/12/12 04:49:55;;;;;;;1.10;1.00;;;1.00;1.40;;;1.68;100.00;96238.04;647618;216;31636;-76
2021/12/12 04:52:55;;;;;;;1.57;1.23;;;1.00;1.40;;;1.70;100.00;96241.09;647497;216;31565;-76
2021/12/12 04:56:01;;;;;;;1.70;1.60;;;1.00;1.40;;;1.72;100.00;96234.98;646629;216;31531;-76
2021/12/12 04:58:58;;;;;;;1.58;1.42;;;1.00;1.40;;;1.74;100.00;96232.88;619854;222;31921;-77
2021/12/12 05:01:40;;;;;;;1.87;0.90;;;1.00;1.40;;;1.77;100.00;96241.48;647399;216;31560;-76
2021/12/12 05:04:24;;;;;;;2.10;1.20;;;1.10;1.40;;;1.88;100.00;96246.52;646570;216;31527;-76
2021/12/12 05:07:21;;;;;;;2.60;1.17;;;1.00;1.40;;;1.78;100.00;96253.10;647060;216;31621;-77
2021/12/12 05:10:04;;;;;;;2.00;1.27;;;1.10;1.40;;;1.81;100.00;96253.06;647373;212;31592;-76
2021/12/12 05:12:46;;;;;;;1.25;1.15;;;1.10;1.40;;;1.75;100.00;96255.89;619241;225;31917;-76
2021/12/12 05:15:29;;;;;;;2.25;1.52;;;1.10;1.40;;;1.71;100.00;96255.31;647625;216;31535;-76
2021/12/12 05:18:13;;;;;;;1.62;1.10;;;1.10;1.40;;;1.74;100.00;96261.06;649224;216;31968;-76
2021/12/12 05:21:00;;;;;;;1.48;1.37;;;1.00;1.40;;;1.71;100.00;96266.60;647096;212;31658;-76
2021/12/12 05:23:41;;;;;;;1.08;1.08;;;1.10;1.40;;;1.66;100.00;96270.98;646222;216;31530;-76
2021/12/12 05:26:26;;;;;;;2.10;1.10;;;1.10;1.40;;;1.69;100.00;96270.77;646850;212;31664;-76
2021/12/12 05:29:09;;;;;;;2.10;1.33;;;1.00;1.40;;;1.67;100.00;96274.53;647082;216;31744;-76
2021/12/12 05:31:56;;;;;;;2.70;1.70;;;1.00;1.40;;;1.68;100.00;96273.30;620121;222;32227;-76
2021/12/12 05:35:54;;;;;;;2.67;1.40;;;1.10;1.40;;;1.74;100.00;96283.67;646991;216;31565;-75
2021/12/12 05:38:35;;;;;;;2.03;1.55;;;1.10;1.40;;;1.72;100.00;96291.16;647531;216;31533;-77
2021/12/12 05:41:18;;;;;;;1.65;1.55;;;1.10;1.40;;;1.74;100.00;96282.13;647839;216;31472;-76
2021/12/12 05:44:02;;;;;;;1.40;1.30;;;1.10;1.40;;;1.63;100.00;96276.14;646845;212;31951;-76
2021/12/12 05:46:45;;;;;;;1.33;0.83;;;1.00;1.40;;;1.61;100.00;96275.20;647290;212;31559;-76
2021/12/12 05:49:27;;;;;;;1.00;1.00;;;1.00;1.40;;;1.64;100.00;96270.41;646458;212;31488;-76
2021/12/12 05:52:10;;;;;;;1.80;1.10;;;1.00;1.40;;;1.63;100.00;96275.94;648084;212;31967;-76
2021/12/12 05:54:51;;;;;;;1.35;1.25;;;1.00;1.40;;;1.65;100.00;96283.73;647466;216;31875;-76
2021/12/12 05:57:37;;;;;;;1.20;1.10;;;1.00;1.40;;;1.71;100.00;96281.89;642789;216;31710;-76
2021/12/12 06:00:25;;;;;;;2.30;1.10;;;1.00;1.40;;;1.80;100.00;96288.06;646060;215;31518;-75
2021/12/12 06:03:13;;;;;;;0.73;0.73;;;1.00;1.40;;;1.83;100.00;96286.80;646970;216;31567;-76
2021/12/12 06:05:54;;;;;;;1.87;1.67;;;1.00;1.40;;;1.88;100.00;96291.27;638785;216;31748;-76
2021/12/12 06:08:36;;;;;;;1.70;1.00;;;0.90;1.40;;;1.99;100.00;96293.00;647970;212;31713;-77
2021/12/12 06:11:18;;;;;;;2.37;2.17;;;1.00;1.40;;;2.03;100.00;96294.86;647210;216;31518;-76
2021/12/12 06:13:59;;;;;;;1.35;1.25;;;1.00;1.40;;;1.84;100.00;96297.08;646452;212;31594;-76
2021/12/12 06:16:41;;;;;;;1.65;0.85;;;1.00;1.40;;;1.91;100.00;96298.36;647845;212;32052;-76
2021/12/12 06:19:22;;;;;;;1.87;1.77;;;0.90;1.40;;;1.96;100.00;96298.76;647106;212;32802;-76
2021/12/12 06:22:04;;;;;;;2.25;1.52;;;0.90;1.40;;;1.79;100.00;96308.19;647736;212;31597;-76
2021/12/12 06:24:46;;;;;;;1.75;1.65;;;1.00;1.40;;;1.76;100.00;96301.16;647144;216;31593;-76
2021/12/12 06:27:30;;;;;;;1.48;1.37;;;1.00;1.40;;;1.85;100.00;96301.20;647255;216;31598;-76
2021/12/12 06:30:15;;;;;;;2.47;0.98;;;0.90;1.40;;;1.90;100.00;96303.04;646142;212;31577;-76
2021/12/12 06:32:57;;;;;;;0.85;0.85;;;0.90;1.40;;;1.82;100.00;96306.34;648208;212;32594;-76
2021/12/12 06:35:51;;;;;;;2.30;1.37;;;1.00;1.40;;;1.81;100.00;96305.14;647960;212;31671;-76
2021/12/12 06:38:32;;;;;;;1.50;1.00;;;1.00;1.40;;;1.85;100.00;96316.30;648182;212;31634;-76
2021/12/12 06:41:15;;;;;;;1.58;1.48;;;1.10;1.40;;;1.95;100.00;96316.64;647969;216;31529;-76
2021/12/12 06:44:00;;;;;;;1.00;1.00;;;1.10;1.40;;;1.90;100.00;96321.64;619350;226;31896;-77
2021/12/12 06:46:41;;;;;;;1.85;1.35;;;1.10;1.40;;;1.93;100.00;96320.34;632175;222;31760;-77
2021/12/12 06:49:23;;;;;;;0.70;0.60;;;1.00;1.40;;;1.93;100.00;96321.02;647794;212;31665;-76
2021/12/12 06:52:05;;;;;;;1.20;1.05;;;1.00;1.40;;;1.97;100.00;96325.56;646812;216;31860;-75
2021/12/12 06:54:46;;;;;;;1.85;1.75;;;1.00;1.40;;;2.02;100.00;96327.67;619572;222;43026;-75
2021/12/12 06:57:31;;;;;;;1.70;1.27;;;1.00;1.40;;;2.06;100.00;96328.70;647797;216;31583;-76
2021/12/12 07:00:13;;;;;;;1.52;1.42;;;1.10;1.40;;;2.04;100.00;96328.20;646570;216;31523;-76
2021/12/12 07:02:58;;;;;;;2.00;1.80;;;1.10;1.40;;;2.07;100.00;96328.09;647881;212;31563;-74
2021/12/12 07:05:39;;;;;;;1.30;1.00;;;1.10;1.40;;;2.07;100.00;96336.31;640479;212;31956;-76
2021/12/12 07:08:21;;;;;;;4.50;1.20;;;1.10;1.40;;;1.98;100.00;96335.70;646926;216;34801;-76
2021/12/12 07:11:03;;;;;;;1.12;1.02;;;1.10;1.40;;;2.01;100.00;96332.60;619872;225;31994;-76
2021/12/12 07:13:44;;;;;;;3.80;1.48;;;1.10;1.40;;;1.99;100.00;96340.05;647615;216;31671;-77
2021/12/12 07:16:28;;;;;;;1.60;1.40;;;1.00;1.40;;;2.02;100.00;96349.27;618452;226;32032;-78
2021/12/12 07:19:15;;;;;;;1.02;1.02;;;1.00;1.40;;;2.01;100.00;96343.70;620502;222;32081;-75
2021/12/12 07:22:04;;;;;;;1.10;0.90;;;1.00;1.40;;;2.07;100.00;96350.72;647817;212;31582;-77
2021/12/12 07:24:59;;;;;;;1.30;1.20;;;1.00;1.40;;;2.10;100.00;96356.89;647161;212;31634;-75
2021/12/12 07:27:41;;;;;;;1.10;1.00;;;1.00;1.40;;;2.11;100.00;96362.15;647114;216;32120;-76
2021/12/12 07:30:28;;;;;;;1.67;1.58;;;1.00;1.40;;;2.13;100.00;96366.31;647085;216;42881;-75
2021/12/12 07:35:51;;;;;;;1.60;1.02;;;1.10;1.40;;;2.23;100.00;96367.68;647712;216;31562;-76
2021/12/12 07:38:32;;;;;;;1.30;0.80;;;1.10;1.40;;;2.12;100.00;96370.53;647702;216;31582;-76
2021/12/12 07:41:14;;;;;;;1.00;0.90;;;1.10;1.40;;;2.06;100.00;96374.28;648352;216;32773;-77
2021/12/12 07:43:56;;;;;;;1.40;0.90;;;1.00;1.40;;;2.15;100.00;96374.92;647777;212;31923;-76
2021/12/12 07:46:37;;;;;;;2.20;1.30;;;1.10;1.40;;;2.35;100.00;96384.08;646242;212;31938;-77
2021/12/12 07:49:19;;;;;;;1.20;1.00;;;1.20;1.40;;;2.43;100.00;96387.41;648113;216;38528;-76
2021/12/12 07:52:01;;;;;;;1.30;1.20;;;1.20;1.40;;;2.36;100.00;96389.09;647690;216;31643;-76
2021/12/12 07:54:46;;;;;;;0.77;0.77;;;1.20;1.40;;;2.47;100.00;96383.50;646327;212;31580;-76
2021/12/12 07:57:28;;;;;;;1.35;1.25;;;1.20;1.40;;;2.39;100.00;96388.20;647213;216;31630;-76
2021/12/12 08:00:11;;;;;;;1.08;1.00;;;1.20;1.40;;;2.45;100.00;96392.28;647708;216;31629;-76
2021/12/12 08:05:29;;;;;;;1.12;1.02;;;1.30;1.40;;;2.62;100.00;96385.27;613125;222;32099;-76
2021/12/12 08:08:13;;;;;;;1.30;1.00;;;1.30;1.40;;;2.63;100.00;96379.84;619228;226;32147;-76
2021/12/12 08:10:55;;;;;;;1.70;1.60;;;1.40;1.40;;;2.56;100.00;96385.49;647769;212;31562;-76
2021/12/12 08:13:36;;;;;;;1.42;1.20;;;1.40;1.40;;;2.65;100.00;96382.95;619973;225;31827;-76
2021/12/12 08:16:19;;;;;;;1.00;1.00;;;1.40;1.40;;;2.69;100.00;96382.92;646718;212;31555;-76
2021/12/12 08:19:00;;;;;;;1.35;1.25;;;1.50;1.40;;;2.94;100.00;96378.19;646120;216;32178;-75
2021/12/12 08:21:42;;;;;;;1.20;1.08;;;1.70;1.40;;;2.83;100.00;96381.56;647761;212;31533;-76
2021/12/12 08:24:24;;;;;;;2.67;2.25;;;1.60;1.40;;;2.71;100.00;96379.92;646095;216;31772;-76
2021/12/12 08:27:06;;;;;;;1.20;1.10;;;1.50;1.40;;;2.85;100.00;96380.39;648214;212;31593;-76
2021/12/12 08:29:47;;;;;;;2.10;1.50;;;1.60;1.40;;;2.70;100.00;96382.31;620449;222;32028;-75
2021/12/12 08:32:29;;;;;;;2.10;1.85;;;1.50;1.40;;;2.69;100.00;96382.94;647087;212;31503;-76
2021/12/12 08:35:52;;;;;;;1.37;1.27;;;1.50;1.40;;;2.50;100.00;96378.32;647944;212;31501;-76
2021/12/12 08:38:33;;;;;;;2.40;1.55;;;1.50;1.40;;;2.48;100.00;96378.16;648649;216;31616;-77
2021/12/12 08:41:15;;;;;;;1.00;0.90;;;1.60;1.40;;;2.62;100.00;96381.97;646605;216;31464;-77
2021/12/12 08:43:57;;;;;;;1.85;1.75;;;2.20;1.40;;;3.74;100.00;96378.72;647639;212;31740;-76
2021/12/12 08:46:38;;;;;;;2.00;1.58;;;4.90;1.40;;;5.57;100.00;96377.73;646590;216;32189;-75
2021/12/12 08:49:23;;;;;;;2.00;1.60;;;6.70;1.40;;;6.58;100.00;96377.60;648031;212;31600;-77
2021/12/12 08:52:06;;;;;;;2.77;2.43;;;6.80;1.40;;;7.79;100.00;96375.79;647643;216;31575;-76
2021/12/12 08:54:53;;;;;;;2.10;1.42;;;6.80;1.40;;;9.02;100.00;96376.70;648915;212;31578;-75
2021/12/12 08:57:39;;;;;;;2.67;1.80;;;8.00;1.40;;;10.11;100.00;96381.27;647721;216;40576;-77
2021/12/12 09:00:16;;;;;;;3.30;2.17;;;9.00;1.40;;;10.79;100.00;96374.76;619646;226;31870;-77
2021/12/12 09:02:56;;;;;;;3.80;2.25;;;9.20;1.40;;;11.77;95.16;96365.05;646939;214;42199;-78
2021/12/12 09:05:38;;;;;;;3.85;2.50;;;9.80;1.40;;;13.05;93.81;96365.47;640067;216;31699;-77
2021/12/12 09:08:41;;;;;;;4.30;2.85;;;9.20;1.40;;;13.07;80.49;96365.98;647284;212;31629;-77
2021/12/12 09:11:27;;;;;;;3.00;2.70;;;9.70;1.40;;;12.55;77.97;96368.08;647151;213;31573;-76
2021/12/12 09:17:07;;;;;;;2.70;2.03;;;10.20;1.40;;;13.70;77.82;96378.05;620392;222;31962;-75
2021/12/12 09:19:56;;;;;;;2.80;2.00;;;10.30;1.40;;;14.39;83.51;96379.66;620338;225;42809;-74
2021/12/12 09:22:41;;;;;;;2.58;2.00;;;10.30;1.40;;;13.45;81.50;96385.02;645629;212;31550;-74
2021/12/12 09:25:24;;;;;;;3.40;2.00;;;9.50;1.40;;;12.37;79.53;96383.55;646866;216;31798;-77
2021/12/12 09:28:06;;;;;;;2.92;2.10;;;8.70;1.40;;;12.93;79.63;96387.53;618794;226;32027;-74
2021/12/12 09:30:50;;;;;;;3.40;1.70;;;8.50;1.40;;;11.34;72.04;96388.27;646843;216;31563;-77
2021/12/12 09:38:31;;;;;;;2.80;1.90;;;5.60;1.40;;;9.30;86.32;96397.42;631375;217;32204;-78
2021/12/12 09:41:45;;;;;;;2.75;2.17;;;5.50;1.40;;;8.88;91.50;96404.86;619681;222;31987;-78
2021/12/12 09:52:44;;;;;;;3.53;2.22;;;7.80;1.40;;;11.87;84.74;96385.29;647378;216;31598;-75
2021/12/12 09:55:28;;;;;;;3.45;2.10;;;8.80;1.40;;;12.42;78.78;96384.55;645941;216;31549;-75
2021/12/12 09:58:18;;;;;;;3.58;2.33;;;10.10;1.40;;;12.82;70.55;96390.55;647147;216;31556;-76
2021/12/12 10:01:05;;;;;;;2.50;1.98;;;10.20;1.40;;;13.75;72.07;96377.47;619126;222;31898;-75
2021/12/12 10:03:52;;;;;;;3.10;1.90;;;10.80;1.40;;;14.60;66.51;96372.20;648458;216;31539;-75
2021/12/12 10:09:26;;;;;;;3.60;2.80;;;11.10;1.40;;;15.51;61.99;96373.02;647123;212;31600;-77
2021/12/12 10:12:13;;;;;;;4.05;2.28;;;11.60;1.40;;;14.54;61.95;96376.10;647792;216;31571;-76
2021/12/12 10:15:14;;;;;;;2.70;2.40;;;10.90;1.40;;;14.27;66.87;96366.61;647019;212;31526;-77
2021/12/12 10:18:00;;;;;;;2.60;2.08;;;11.10;1.40;;;15.15;54.66;96357.47;647460;216;31695;-77
2021/12/12 10:20:42;;;;;;;3.58;2.78;;;10.60;1.40;;;16.40;71.30;96352.58;646313;216;31588;-78
2021/12/12 10:26:22;;;;;;;3.20;2.40;;;12.10;1.40;;;15.93;58.26;96347.03;648109;212;31853;-76
2021/12/12 10:29:22;;;;;;;2.83;2.50;;;9.90;1.40;;;16.71;56.09;96347.41;647224;212;31998;-75
2021/12/12 10:32:08;;;;;;;2.50;2.15;;;10.50;1.40;;;16.48;54.26;96349.09;648401;212;31567;-76
2021/12/12 10:35:58;;;;;;;3.87;2.37;;;10.70;1.40;;;15.16;52.73;96343.09;646516;212;31616;-76
2021/12/12 10:38:39;;;;;;;2.72;2.40;;;10.60;1.40;;;15.39;59.55;96340.50;647031;216;31562;-76
2021/12/12 10:41:24;;;;;;;2.90;2.55;;;10.90;1.40;;;16.98;50.10;96339.31;619675;222;31863;-76
2021/12/12 10:44:16;;;;;;;3.05;2.53;;;11.80;1.40;;;15.43;51.29;96336.05;647485;212;42199;-76
2021/12/12 10:47:19;;;;;;;2.75;2.28;;;10.60;1.40;;;17.02;50.46;96331.71;646876;216;31579;-76
2021/12/12 10:52:45;;;;;;;2.15;1.90;;;12.00;1.40;;;16.35;46.62;96334.95;646587;212;31576;-76
2021/12/12 10:55:32;;;;;;;2.70;1.80;;;11.00;1.40;;;14.52;52.07;96333.08;646285;216;31639;-76
2021/12/12 10:58:21;;;;;;;2.37;1.80;;;9.90;1.40;;;15.12;50.82;96331.94;619507;226;31982;-75
2021/12/12 11:01:10;;;;;;;2.58;2.33;;;10.00;1.40;;;15.00;51.41;96324.72;646528;212;31549;-75
2021/12/12 11:03:54;;;;;;;2.78;1.85;;;10.00;1.40;;;16.68;51.98;96321.05;645850;212;31581;-75
2021/12/12 11:06:36;;;;;;;2.90;2.00;;;11.40;1.40;;;17.58;54.41;96328.38;646523;212;31598;-76
2021/12/12 11:09:23;;;;;;;2.20;1.70;;;11.20;1.40;;;16.67;50.07;96337.95;647586;212;32159;-75
2021/12/12 11:12:19;;;;;;;2.00;1.58;;;11.50;1.40;;;16.02;46.02;96333.88;647465;216;32743;-76
2021/12/12 11:15:05;;;;;;;2.08;1.75;;;10.70;1.40;;;16.42;44.61;96329.78;647860;212;32034;-76
2021/12/12 11:18:09;;;;;;;1.83;1.70;;;10.90;1.40;;;15.72;51.12;96327.02;618902;225;32602;-75
2021/12/12 11:20:54;;;;;;;2.03;1.83;;;10.90;1.40;;;13.46;53.13;96325.06;647615;216;31569;-75
2021/12/12 11:23:36;;;;;;;2.30;2.10;;;9.90;1.40;;;12.24;55.99;96323.64;648296;216;31575;-76
2021/12/12 11:28:52;;;;;;;2.85;1.90;;;10.80;1.40;;;12.44;55.10;96320.77;647283;216;31556;-76
2021/12/12 11:31:38;;;;;;;4.03;1.87;;;7.70;1.40;;;10.19;69.50;96314.73;646942;212;31529;-76
2021/12/12 11:35:51;;;;;;;1.80;1.70;;;7.60;1.40;;;9.40;73.63;96320.52;646606;212;31566;-76
2021/12/12 11:38:37;;;;;;;2.30;1.40;;;6.40;1.40;;;8.86;79.89;96326.72;647084;212;31541;-77
2021/12/12 11:41:38;;;;;;;2.40;1.42;;;6.20;1.40;;;9.44;78.61;96327.17;619688;222;31858;-75
2021/12/12 11:44:30;;;;;;;1.53;1.20;;;7.20;1.40;;;9.53;76.40;96329.06;648184;212;31677;-75
2021/12/12 11:47:30;;;;;;;1.20;1.00;;;6.70;1.40;;;8.66;80.46;96328.59;647648;216;31576;-77
2021/12/12 11:50:21;;;;;;;1.70;1.50;;;6.40;1.40;;;8.73;79.67;96328.16;647387;216;31540;-77
2021/12/12 11:53:03;;;;;;;1.27;1.00;;;6.30;1.40;;;7.96;85.56;96326.52;647733;216;42033;-76
2021/12/12 11:55:51;;;;;;;1.20;1.10;;;6.20;1.40;;;7.79;84.27;96326.39;648054;212;31568;-76
2021/12/12 11:58:37;;;;;;;1.50;0.80;;;5.50;1.40;;;7.43;87.13;96320.37;647533;216;42235;-77
2021/12/12 12:01:24;;;;;;;1.50;1.20;;;5.10;1.40;;;7.51;89.40;96322.43;618986;222;34784;-77
2021/12/12 12:04:14;;;;;;;2.60;1.20;;;5.20;1.40;;;7.63;88.07;96314.47;631839;222;31720;-76
2021/12/12 12:07:36;;;;;;;1.45;1.12;;;5.30;1.40;;;6.79;91.55;96323.16;620267;226;32040;-76
2021/12/12 12:10:37;;;;;;;1.50;1.30;;;4.60;1.40;;;6.26;99.81;96322.86;646649;216;31564;-76
2021/12/12 12:13:44;;;;;;;1.48;1.33;;;4.60;1.40;;;6.06;100.00;96326.36;647525;216;31493;-76
2021/12/12 12:16:50;;;;;;;1.63;1.33;;;4.40;1.40;;;5.75;100.00;96317.77;647523;212;31583;-77
2021/12/12 12:19:36;;;;;;;1.90;1.58;;;4.20;1.40;;;5.68;100.00;96317.80;647395;212;31546;-77
2021/12/12 12:22:37;;;;;;;1.40;1.30;;;4.40;1.40;;;5.52;100.00;96323.83;619157;222;31868;-75
2021/12/12 12:25:25;;;;;;;2.00;1.80;;;4.20;1.40;;;5.76;100.00;96318.05;647141;212;31544;-76
2021/12/12 12:28:06;;;;;;;2.40;1.00;;;4.60;1.40;;;5.41;100.00;96319.83;618537;222;31910;-76
2021/12/12 12:30:57;;;;;;;1.50;1.10;;;4.10;1.40;;;5.52;100.00;96320.92;647110;216;31499;-76
2021/12/12 12:36:10;;;;;;;1.60;1.33;;;4.10;1.40;;;5.57;100.00;96311.46;647506;216;31590;-77
2021/12/12 12:42:21;;;;;;;1.62;1.00;;;4.40;1.40;;;5.59;100.00;96311.84;616381;226;31891;-75
2021/12/12 12:48:02;;;;;;;1.90;1.20;;;4.60;1.40;;;5.78;100.00;96306.20;648799;212;31572;-77
2021/12/12 12:50:51;;;;;;;2.50;1.47;;;4.30;1.40;;;5.51;100.00;96304.73;619856;226;31873;-75
2021/12/12 12:54:03;;;;;;;1.47;1.10;;;4.20;1.40;;;5.44;100.00;96301.04;646952;212;31582;-77
2021/12/12 12:57:17;;;;;;;2.40;1.30;;;4.30;1.40;;;5.60;100.00;96298.56;646159;212;31835;-76
2021/12/12 13:00:07;;;;;;;1.33;1.00;;;4.60;1.40;;;6.27;100.00;96297.45;647425;212;31537;-76